Main page
METAR-TAF:

METAR-TAF

Airports :

Doncaster Sheffield Airport

Doncaster, England

latitude: 53-29N, longitude: 001-00W, elevation: 17 m

Current weather observation

The report was made 19 minutes ago, at 18:50 UTC
Wind 8 kt from the South/Southeast
Temperature 10°C
Humidity 82%
Pressure 1022 hPa
Visibility 10 km or more
no clouds below 1500 m and no cumulonimbus

METAR: EGCN 131850Z 16008KT CAVOK 10/07 Q1022

Time: 19:09 (19:09 UTC)

Forecast

The report was made 2 hours and 4 minutes ago, at 17:05 UTC
Forecast valid from 13 at 18 UTC to 14 at 18 UTC
Wind 9 kt from the South
Visibility 10 km or more
Few clouds at a height of 3000 ft
Probability 30% :
Temporary
from 14 at 00 UTC to 14 at 06 UTC
Visibility: 8000 m
light rain
Temporary
from 14 at 06 UTC to 14 at 14 UTC
Wind 17 kt from the South/Southwest with gusts up to 27 kt

TAF: EGCN 131705Z 1318/1418 19009KT 9999 FEW030 PROB30 TEMPO 1400/1406 8000 -RA TEMPO 1406/1414 20017G27KT

Weather observations and forecasts of more than 4000 airports (METAR and TAF reports).

The available stations are represented by yellow and red dots on the map.

Hover mouse over dot to see the name of the station.

Then click to see weather observations and forecasts.

To change the map : click on the green buttons with a black cross to zoom in, on the green button with a dash to zoom out, or on the green arrows for adjacent maps.


METAR-TAF: